Trigger — WDF7822 — position and weather

sailwx.info

Track history (hours):
 
Tides and Currents Weather Stations Pressure Air Temp Water Temp Dewpoint Dewpoint Depression Visibility Wind Speed Wind Dir Waves Ship Positions

Trigger

Owner: Harley Marine Services, INC, Seattle, WA. More information available from US FCC via Universal Licensing System.

Last reported at 2017-Nov-20 00:30 UTC. Time now 2017-Nov-22 09:15 UTC.
Position N 29°37' W 095°01'.

Length 31 m; draft 3.2 m.

Type: Towing. MMSI: 367488490.

Date/timePositionNaut miles runAvg speedWind from/ knotsBaromVisibWave heightAir tempDewpointWater temp
2017-Nov-20 00:30N 29°37' W 095°01'0 0.0
2017-Nov-20 00:00N 29°37' W 095°01'0 0.0
2017-Nov-19 23:30N 29°37' W 095°01'0 0.0
2017-Nov-19 22:57N 29°37' W 095°01'0 0.0
2017-Nov-19 22:27N 29°37' W 095°01'0 0.0
2017-Nov-19 21:57N 29°37' W 095°01'0 0.0
2017-Nov-19 21:30N 29°37' W 095°01'0 0.0
2017-Nov-19 21:00N 29°37' W 095°01'0 0.0
2017-Nov-19 20:27N 29°37' W 095°01'0 0.0
2017-Nov-19 20:00N 29°37' W 095°01'0 0.0
2017-Nov-19 19:30N 29°37' W 095°01'0 0.0
2017-Nov-19 19:00N 29°37' W 095°01'0 0.0
2017-Nov-19 18:30N 29°37' W 095°01'0 0.0
2017-Nov-19 18:00N 29°37' W 095°01'0 0.0
2017-Nov-19 17:30N 29°37' W 095°01'0 0.0
2017-Nov-19 16:51N 29°37' W 095°01'0 0.2
2017-Nov-19 16:30N 29°37' W 095°00'3 5.2
2017-Nov-19 16:00N 29°37' W 094°58'3 6.3
2017-Nov-19 15:30N 29°40' W 094°59'4 7.5
2017-Nov-19 14:55N 29°44' W 095°02'4 0.1
2017-Nov-18 04:16N 29°46' W 095°05'3 5.6
2017-Nov-18 03:47N 29°44' W 095°03'2 7.1
2017-Nov-18 03:26N 29°42' W 095°01'3 7.3
2017-Nov-18 03:00N 29°40' W 094°58'3 6.5
2017-Nov-18 02:31N 29°37' W 094°59'2 3.4
2017-Nov-18 02:00N 29°37' W 095°01'0 0.0
2017-Nov-18 01:30N 29°37' W 095°01'0 0.0
2017-Nov-18 01:00N 29°37' W 095°01'0 0.0
2017-Nov-18 00:30N 29°37' W 095°01'0 0.0
2017-Nov-18 00:00N 29°37' W 095°01'0 0.0
2017-Nov-17 23:30N 29°37' W 095°01'0 0.0
2017-Nov-17 23:00N 29°37' W 095°01'0 0.0
2017-Nov-17 22:29N 29°37' W 095°01'0 0.0
2017-Nov-17 21:53N 29°37' W 095°01'0 0.0
2017-Nov-17 21:29N 29°37' W 095°01'0 0.0
2017-Nov-17 20:59N 29°37' W 095°01'0 0.0
2017-Nov-17 20:29N 29°37' W 095°01'0 0.0
2017-Nov-17 19:56N 29°37' W 095°01'0 0.0
2017-Nov-17 19:23N 29°37' W 095°01'0 0.0
2017-Nov-17 18:59N 29°37' W 095°01'0 0.0
2017-Nov-17 18:30N 29°37' W 095°01'0 0.1
2017-Nov-17 18:00N 29°37' W 095°01'0 0.0
2017-Nov-17 17:27N 29°37' W 095°01'0 0.0
2017-Nov-17 16:57N 29°37' W 095°01'0 0.0
2017-Nov-17 16:22N 29°37' W 095°01'0 0.0
2017-Nov-17 15:55N 29°37' W 095°01'0 0.0
2017-Nov-17 15:28N 29°37' W 095°01'0 0.0
2017-Nov-17 14:58N 29°37' W 095°01'0 0.0
2017-Nov-17 14:25N 29°37' W 095°01'0 0.0
2017-Nov-17 13:51N 29°37' W 095°01'0 0.0
2017-Nov-17 13:30N 29°37' W 095°01'0 0.0
2017-Nov-17 13:00N 29°37' W 095°01'0 0.0
2017-Nov-17 11:54N 29°37' W 095°01'0 0.0
2017-Nov-17 11:30N 29°37' W 095°01'1 1.3
2017-Nov-17 11:01N 29°37' W 095°01'0 0.2
2017-Nov-17 10:28N 29°37' W 095°01'0 0.0
2017-Nov-17 09:58N 29°37' W 095°01'1 1.9
2017-Nov-17 09:31N 29°37' W 095°00'2 3.5
2017-Nov-17 09:00N 29°37' W 094°58'2 3.7
2017-Nov-17 08:30N 29°39' W 094°58'3 6.3
2017-Nov-17 08:00N 29°42' W 094°60'4 5.8
2017-Nov-17 07:22N 29°44' W 095°03'3 5.1
2017-Nov-17 06:50N 29°45' W 095°06'2 6.2
2017-Nov-17 06:27N 29°44' W 095°08'3 6.5
2017-Nov-17 05:59N 29°45' W 095°12'3 6.0
2017-Nov-17 05:26N 29°44' W 095°15'1 0.1
2017-Nov-16 20:23N 29°44' W 095°16'2 5.3
2017-Nov-16 19:58N 29°43' W 095°14'5 6.2
2017-Nov-16 19:09N 29°44' W 095°08'2 7.4
2017-Nov-16 18:55N 29°45' W 095°06'3 0.3
2017-Nov-16 08:32N 29°44' W 095°03'0 0.2
2017-Nov-16 08:27N 29°44' W 095°03'0 0.0
2017-Nov-16 07:57N 29°44' W 095°03'0 0.1
2017-Nov-16 07:20N 29°44' W 095°03'2 5.0
2017-Nov-16 06:53N 29°42' W 095°01'3 7.3
2017-Nov-16 06:31N 29°41' W 094°59'4 8.0
2017-Nov-16 06:00N 29°37' W 094°57'4 8.1
2017-Nov-16 05:31N 29°33' W 094°55'4 8.1
2017-Nov-16 05:01N 29°30' W 094°52'2 0.1
2017-Nov-15 13:44N 29°32' W 094°54'2 7.3
2017-Nov-15 13:30N 29°33' W 094°55'4 7.1
2017-Nov-15 13:00N 29°36' W 094°57'4 7.3
2017-Nov-15 12:30N 29°39' W 094°58'4 7.0
2017-Nov-15 11:59N 29°42' W 095°01'4 6.6
2017-Nov-15 11:27N 29°45' W 095°04'  
2017-Nov-13 00:51N 29°46' W 095°05'3 0.8
2017-Nov-12 21:31N 29°44' W 095°03'0 0.0
2017-Nov-12 21:19N 29°44' W 095°03'0 0.0
2017-Nov-12 19:22N 29°44' W 095°03'0 0.0
2017-Nov-12 18:58N 29°44' W 095°03'0 0.0
2017-Nov-12 17:58N 29°44' W 095°03'0 0.0
2017-Nov-12 16:18N 29°44' W 095°03'0 0.1
2017-Nov-12 15:54N 29°44' W 095°03'0 0.6
2017-Nov-12 15:28N 29°44' W 095°03'3 0.5
2017-Nov-12 10:26N 29°46' W 095°06'3 6.1
2017-Nov-12 09:59N 29°44' W 095°03'3 7.1
2017-Nov-12 09:30N 29°42' W 095°00'4 7.9
2017-Nov-12 09:00N 29°39' W 094°58'4 8.1
2017-Nov-12 08:31N 29°35' W 094°56'4 8.3
2017-Nov-12 08:00N 29°31' W 094°53'0 0.0
2017-Nov-10 18:46N 29°32' W 094°54'2 7.8
2017-Nov-10 18:30N 29°33' W 094°55'4 7.6
2017-Nov-10 18:00N 29°37' W 094°57'4 7.2
2017-Nov-10 17:30N 29°40' W 094°59'4 7.4
2017-Nov-10 16:55N 29°44' W 095°01'5 0.7
2017-Nov-10 10:02N 29°46' W 095°06'1 4.7
2017-Nov-10 09:43N 29°46' W 095°04'2 0.3
2017-Nov-10 02:10N 29°44' W 095°03'0 0.0
2017-Nov-10 01:46N 29°44' W 095°03'0 0.1
2017-Nov-10 01:07N 29°44' W 095°03'0 2.4
2017-Nov-10 01:00N 29°44' W 095°03'  
Track history (hours):
 
Tides and Currents Weather Stations Pressure Air Temp Water Temp Dewpoint Dewpoint Depression Visibility Wind Speed Wind Dir Waves Ship Positions

Trigger

Owner: Harley Marine Services, INC, Seattle, WA. More information available from US FCC via Universal Licensing System.

Last reported at 2017-Nov-20 00:30 UTC. Time now 2017-Nov-22 09:15 UTC.
Position N 29°37' W 095°01'.

Length 31 m; draft 3.2 m.

Type: Towing. MMSI: 367488490.

Date/timePositionNaut miles runAvg speedWind from/ knotsBaromVisibWave heightAir tempDewpointWater temp
2017-Nov-20 00:30N 29°37' W 095°01'0 0.0
2017-Nov-20 00:00N 29°37' W 095°01'0 0.0
2017-Nov-19 23:30N 29°37' W 095°01'0 0.0
2017-Nov-19 22:57N 29°37' W 095°01'0 0.0
2017-Nov-19 22:27N 29°37' W 095°01'0 0.0
2017-Nov-19 21:57N 29°37' W 095°01'0 0.0
2017-Nov-19 21:30N 29°37' W 095°01'0 0.0
2017-Nov-19 21:00N 29°37' W 095°01'0 0.0
2017-Nov-19 20:27N 29°37' W 095°01'0 0.0
2017-Nov-19 20:00N 29°37' W 095°01'0 0.0
2017-Nov-19 19:30N 29°37' W 095°01'0 0.0
2017-Nov-19 19:00N 29°37' W 095°01'0 0.0
2017-Nov-19 18:30N 29°37' W 095°01'0 0.0
2017-Nov-19 18:00N 29°37' W 095°01'0 0.0
2017-Nov-19 17:30N 29°37' W 095°01'0 0.0
2017-Nov-19 16:51N 29°37' W 095°01'0 0.2
2017-Nov-19 16:30N 29°37' W 095°00'3 5.2
2017-Nov-19 16:00N 29°37' W 094°58'3 6.3
2017-Nov-19 15:30N 29°40' W 094°59'4 7.5
2017-Nov-19 14:55N 29°44' W 095°02'4 0.1
2017-Nov-18 04:16N 29°46' W 095°05'3 5.6
2017-Nov-18 03:47N 29°44' W 095°03'2 7.1
2017-Nov-18 03:26N 29°42' W 095°01'3 7.3
2017-Nov-18 03:00N 29°40' W 094°58'3 6.5
2017-Nov-18 02:31N 29°37' W 094°59'2 3.4
2017-Nov-18 02:00N 29°37' W 095°01'0 0.0
2017-Nov-18 01:30N 29°37' W 095°01'0 0.0
2017-Nov-18 01:00N 29°37' W 095°01'0 0.0
2017-Nov-18 00:30N 29°37' W 095°01'0 0.0
2017-Nov-18 00:00N 29°37' W 095°01'0 0.0
2017-Nov-17 23:30N 29°37' W 095°01'0 0.0
2017-Nov-17 23:00N 29°37' W 095°01'0 0.0
2017-Nov-17 22:29N 29°37' W 095°01'0 0.0
2017-Nov-17 21:53N 29°37' W 095°01'0 0.0
2017-Nov-17 21:29N 29°37' W 095°01'0 0.0
2017-Nov-17 20:59N 29°37' W 095°01'0 0.0
2017-Nov-17 20:29N 29°37' W 095°01'0 0.0
2017-Nov-17 19:56N 29°37' W 095°01'0 0.0
2017-Nov-17 19:23N 29°37' W 095°01'0 0.0
2017-Nov-17 18:59N 29°37' W 095°01'0 0.0
2017-Nov-17 18:30N 29°37' W 095°01'0 0.1
2017-Nov-17 18:00N 29°37' W 095°01'0 0.0
2017-Nov-17 17:27N 29°37' W 095°01'0 0.0
2017-Nov-17 16:57N 29°37' W 095°01'0 0.0
2017-Nov-17 16:22N 29°37' W 095°01'0 0.0
2017-Nov-17 15:55N 29°37' W 095°01'0 0.0
2017-Nov-17 15:28N 29°37' W 095°01'0 0.0
2017-Nov-17 14:58N 29°37' W 095°01'0 0.0
2017-Nov-17 14:25N 29°37' W 095°01'0 0.0
2017-Nov-17 13:51N 29°37' W 095°01'0 0.0
2017-Nov-17 13:30N 29°37' W 095°01'0 0.0
2017-Nov-17 13:00N 29°37' W 095°01'0 0.0
2017-Nov-17 11:54N 29°37' W 095°01'0 0.0
2017-Nov-17 11:30N 29°37' W 095°01'1 1.3
2017-Nov-17 11:01N 29°37' W 095°01'0 0.2
2017-Nov-17 10:28N 29°37' W 095°01'0 0.0
2017-Nov-17 09:58N 29°37' W 095°01'1 1.9
2017-Nov-17 09:31N 29°37' W 095°00'2 3.5
2017-Nov-17 09:00N 29°37' W 094°58'2 3.7
2017-Nov-17 08:30N 29°39' W 094°58'3 6.3
2017-Nov-17 08:00N 29°42' W 094°60'4 5.8
2017-Nov-17 07:22N 29°44' W 095°03'3 5.1
2017-Nov-17 06:50N 29°45' W 095°06'2 6.2
2017-Nov-17 06:27N 29°44' W 095°08'3 6.5
2017-Nov-17 05:59N 29°45' W 095°12'3 6.0
2017-Nov-17 05:26N 29°44' W 095°15'1 0.1
2017-Nov-16 20:23N 29°44' W 095°16'2 5.3
2017-Nov-16 19:58N 29°43' W 095°14'5 6.2
2017-Nov-16 19:09N 29°44' W 095°08'2 7.4
2017-Nov-16 18:55N 29°45' W 095°06'3 0.3
2017-Nov-16 08:32N 29°44' W 095°03'0 0.2
2017-Nov-16 08:27N 29°44' W 095°03'0 0.0
2017-Nov-16 07:57N 29°44' W 095°03'0 0.1
2017-Nov-16 07:20N 29°44' W 095°03'2 5.0
2017-Nov-16 06:53N 29°42' W 095°01'3 7.3
2017-Nov-16 06:31N 29°41' W 094°59'4 8.0
2017-Nov-16 06:00N 29°37' W 094°57'4 8.1
2017-Nov-16 05:31N 29°33' W 094°55'4 8.1
2017-Nov-16 05:01N 29°30' W 094°52'2 0.1
2017-Nov-15 13:44N 29°32' W 094°54'2 7.3
2017-Nov-15 13:30N 29°33' W 094°55'4 7.1
2017-Nov-15 13:00N 29°36' W 094°57'4 7.3
2017-Nov-15 12:30N 29°39' W 094°58'4 7.0
2017-Nov-15 11:59N 29°42' W 095°01'4 6.6
2017-Nov-15 11:27N 29°45' W 095°04'  
2017-Nov-13 00:51N 29°46' W 095°05'3 0.8
2017-Nov-12 21:31N 29°44' W 095°03'0 0.0
2017-Nov-12 21:19N 29°44' W 095°03'0 0.0
2017-Nov-12 19:22N 29°44' W 095°03'0 0.0
2017-Nov-12 18:58N 29°44' W 095°03'0 0.0
2017-Nov-12 17:58N 29°44' W 095°03'0 0.0
2017-Nov-12 16:18N 29°44' W 095°03'0 0.1
2017-Nov-12 15:54N 29°44' W 095°03'0 0.6
2017-Nov-12 15:28N 29°44' W 095°03'3 0.5
2017-Nov-12 10:26N 29°46' W 095°06'3 6.1
2017-Nov-12 09:59N 29°44' W 095°03'3 7.1
2017-Nov-12 09:30N 29°42' W 095°00'4 7.9
2017-Nov-12 09:00N 29°39' W 094°58'4 8.1
2017-Nov-12 08:31N 29°35' W 094°56'4 8.3
2017-Nov-12 08:00N 29°31' W 094°53'0 0.0
2017-Nov-10 18:46N 29°32' W 094°54'2 7.8
2017-Nov-10 18:30N 29°33' W 094°55'4 7.6
2017-Nov-10 18:00N 29°37' W 094°57'4 7.2
2017-Nov-10 17:30N 29°40' W 094°59'4 7.4
2017-Nov-10 16:55N 29°44' W 095°01'5 0.7
2017-Nov-10 10:02N 29°46' W 095°06'1 4.7
2017-Nov-10 09:43N 29°46' W 095°04'2 0.3
2017-Nov-10 02:10N 29°44' W 095°03'0 0.0
2017-Nov-10 01:46N 29°44' W 095°03'0 0.1
2017-Nov-10 01:07N 29°44' W 095°03'0 2.4
2017-Nov-10 01:00N 29°44' W 095°03'  

Dump ship's entire track history